sensor_id;sensor_type;location;lat;lon;timestamp;P1;durP1;ratioP1;P2;durP2;ratioP2
11123;SDS011;5616;42.692;23.312;2024-02-23T00:01:45;18.83;;;10.05;;
11123;SDS011;5616;42.692;23.312;2024-02-23T00:04:12;17.65;;;9.85;;
11123;SDS011;5616;42.692;23.312;2024-02-23T00:06:37;17.38;;;9.80;;
11123;SDS011;5616;42.692;23.312;2024-02-23T00:09:03;15.13;;;9.98;;
11123;SDS011;5616;42.692;23.312;2024-02-23T00:11:29;17.88;;;9.88;;
11123;SDS011;5616;42.692;23.312;2024-02-23T00:13:55;15.95;;;8.50;;
11123;SDS011;5616;42.692;23.312;2024-02-23T00:16:20;16.85;;;8.85;;
11123;SDS011;5616;42.692;23.312;2024-02-23T00:18:46;14.43;;;7.85;;
11123;SDS011;5616;42.692;23.312;2024-02-23T00:21:11;16.52;;;9.07;;
11123;SDS011;5616;42.692;23.312;2024-02-23T00:23:37;17.13;;;9.32;;
11123;SDS011;5616;42.692;23.312;2024-02-23T00:26:02;16.70;;;8.68;;
11123;SDS011;5616;42.692;23.312;2024-02-23T00:28:28;14.60;;;8.68;;
11123;SDS011;5616;42.692;23.312;2024-02-23T00:30:54;32.83;;;11.63;;
11123;SDS011;5616;42.692;23.312;2024-02-23T00:33:19;18.15;;;9.73;;
11123;SDS011;5616;42.692;23.312;2024-02-23T00:35:44;19.55;;;9.40;;
11123;SDS011;5616;42.692;23.312;2024-02-23T00:38:10;15.55;;;7.75;;
11123;SDS011;5616;42.692;23.312;2024-02-23T00:40:36;17.30;;;8.95;;
11123;SDS011;5616;42.692;23.312;2024-02-23T00:43:01;13.85;;;8.13;;
11123;SDS011;5616;42.692;23.312;2024-02-23T00:45:28;18.88;;;8.73;;
11123;SDS011;5616;42.692;23.312;2024-02-23T00:47:54;15.50;;;8.20;;
11123;SDS011;5616;42.692;23.312;2024-02-23T00:50:19;18.92;;;9.05;;
11123;SDS011;5616;42.692;23.312;2024-02-23T00:52:45;17.98;;;7.95;;
11123;SDS011;5616;42.692;23.312;2024-02-23T00:55:10;18.55;;;8.60;;
11123;SDS011;5616;42.692;23.312;2024-02-23T00:57:36;14.05;;;8.18;;
11123;SDS011;5616;42.692;23.312;2024-02-23T01:00:02;16.42;;;8.98;;
11123;SDS011;5616;42.692;23.312;2024-02-23T01:02:30;19.38;;;9.38;;
11123;SDS011;5616;42.692;23.312;2024-02-23T01:04:56;14.73;;;7.85;;
11123;SDS011;5616;42.692;23.312;2024-02-23T01:07:23;17.55;;;9.10;;
11123;SDS011;5616;42.692;23.312;2024-02-23T01:09:49;16.75;;;8.98;;
11123;SDS011;5616;42.692;23.312;2024-02-23T01:12:15;16.67;;;9.18;;
11123;SDS011;5616;42.692;23.312;2024-02-23T01:14:40;14.23;;;8.23;;
11123;SDS011;5616;42.692;23.312;2024-02-23T01:17:06;14.50;;;8.82;;
11123;SDS011;5616;42.692;23.312;2024-02-23T01:19:31;15.23;;;7.97;;
11123;SDS011;5616;42.692;23.312;2024-02-23T01:21:57;13.63;;;7.63;;
11123;SDS011;5616;42.692;23.312;2024-02-23T01:24:26;18.00;;;9.43;;
11123;SDS011;5616;42.692;23.312;2024-02-23T01:26:54;15.77;;;9.15;;
11123;SDS011;5616;42.692;23.312;2024-02-23T01:29:20;16.55;;;9.75;;
11123;SDS011;5616;42.692;23.312;2024-02-23T01:31:47;14.80;;;9.05;;
11123;SDS011;5616;42.692;23.312;2024-02-23T01:34:13;15.98;;;8.18;;
11123;SDS011;5616;42.692;23.312;2024-02-23T01:36:39;15.90;;;9.23;;
11123;SDS011;5616;42.692;23.312;2024-02-23T01:39:05;14.13;;;7.85;;
11123;SDS011;5616;42.692;23.312;2024-02-23T01:41:30;13.77;;;7.90;;
11123;SDS011;5616;42.692;23.312;2024-02-23T01:43:57;15.68;;;7.72;;
11123;SDS011;5616;42.692;23.312;2024-02-23T01:46:23;18.25;;;8.25;;
11123;SDS011;5616;42.692;23.312;2024-02-23T01:48:48;14.80;;;8.70;;
11123;SDS011;5616;42.692;23.312;2024-02-23T01:51:14;17.05;;;8.98;;
11123;SDS011;5616;42.692;23.312;2024-02-23T01:53:39;16.70;;;8.57;;
11123;SDS011;5616;42.692;23.312;2024-02-23T01:56:05;13.27;;;7.88;;
11123;SDS011;5616;42.692;23.312;2024-02-23T01:58:32;14.07;;;8.02;;
11123;SDS011;5616;42.692;23.312;2024-02-23T02:01:00;13.52;;;8.10;;
11123;SDS011;5616;42.692;23.312;2024-02-23T02:03:26;16.48;;;9.02;;
11123;SDS011;5616;42.692;23.312;2024-02-23T02:05:51;15.05;;;9.10;;
11123;SDS011;5616;42.692;23.312;2024-02-23T02:08:19;17.38;;;8.15;;
11123;SDS011;5616;42.692;23.312;2024-02-23T02:10:45;14.48;;;8.05;;
11123;SDS011;5616;42.692;23.312;2024-02-23T02:13:11;15.38;;;8.52;;
11123;SDS011;5616;42.692;23.312;2024-02-23T02:15:37;19.10;;;8.82;;
11123;SDS011;5616;42.692;23.312;2024-02-23T02:18:03;20.80;;;10.65;;
11123;SDS011;5616;42.692;23.312;2024-02-23T02:20:28;16.73;;;9.45;;
11123;SDS011;5616;42.692;23.312;2024-02-23T02:22:57;14.18;;;8.27;;
11123;SDS011;5616;42.692;23.312;2024-02-23T02:25:23;14.98;;;7.95;;
11123;SDS011;5616;42.692;23.312;2024-02-23T02:27:48;18.60;;;8.70;;
11123;SDS011;5616;42.692;23.312;2024-02-23T02:30:14;18.58;;;8.85;;
11123;SDS011;5616;42.692;23.312;2024-02-23T02:32:41;17.85;;;8.98;;
11123;SDS011;5616;42.692;23.312;2024-02-23T02:35:06;16.52;;;8.63;;
11123;SDS011;5616;42.692;23.312;2024-02-23T02:37:32;16.02;;;8.77;;
11123;SDS011;5616;42.692;23.312;2024-02-23T02:39:57;16.38;;;8.98;;
11123;SDS011;5616;42.692;23.312;2024-02-23T02:42:23;18.30;;;9.65;;
11123;SDS011;5616;42.692;23.312;2024-02-23T02:44:48;20.52;;;9.45;;
11123;SDS011;5616;42.692;23.312;2024-02-23T02:47:14;19.27;;;9.77;;
11123;SDS011;5616;42.692;23.312;2024-02-23T02:49:40;16.08;;;9.13;;
11123;SDS011;5616;42.692;23.312;2024-02-23T02:52:05;19.13;;;9.70;;
11123;SDS011;5616;42.692;23.312;2024-02-23T02:54:31;22.80;;;10.77;;
11123;SDS011;5616;42.692;23.312;2024-02-23T02:56:57;21.30;;;9.00;;
11123;SDS011;5616;42.692;23.312;2024-02-23T02:59:23;18.23;;;9.05;;
11123;SDS011;5616;42.692;23.312;2024-02-23T03:01:48;19.88;;;9.73;;
11123;SDS011;5616;42.692;23.312;2024-02-23T03:04:14;15.20;;;8.70;;
11123;SDS011;5616;42.692;23.312;2024-02-23T03:06:40;17.88;;;9.93;;
11123;SDS011;5616;42.692;23.312;2024-02-23T03:09:05;19.88;;;9.75;;
11123;SDS011;5616;42.692;23.312;2024-02-23T03:11:32;18.15;;;10.45;;
11123;SDS011;5616;42.692;23.312;2024-02-23T03:13:57;13.63;;;8.15;;
11123;SDS011;5616;42.692;23.312;2024-02-23T03:16:23;19.27;;;10.07;;
11123;SDS011;5616;42.692;23.312;2024-02-23T03:18:51;20.95;;;10.05;;
11123;SDS011;5616;42.692;23.312;2024-02-23T03:21:17;16.63;;;9.32;;
11123;SDS011;5616;42.692;23.312;2024-02-23T03:23:42;18.17;;;8.90;;
11123;SDS011;5616;42.692;23.312;2024-02-23T03:26:08;16.30;;;10.07;;
11123;SDS011;5616;42.692;23.312;2024-02-23T03:28:33;16.00;;;9.15;;
11123;SDS011;5616;42.692;23.312;2024-02-23T03:31:02;18.02;;;9.95;;
11123;SDS011;5616;42.692;23.312;2024-02-23T03:33:27;16.98;;;8.60;;
11123;SDS011;5616;42.692;23.312;2024-02-23T03:35:53;17.33;;;9.15;;
11123;SDS011;5616;42.692;23.312;2024-02-23T03:38:18;17.48;;;9.38;;
11123;SDS011;5616;42.692;23.312;2024-02-23T03:40:44;18.52;;;9.32;;
11123;SDS011;5616;42.692;23.312;2024-02-23T03:43:10;14.70;;;8.20;;
11123;SDS011;5616;42.692;23.312;2024-02-23T03:45:35;16.90;;;9.05;;
11123;SDS011;5616;42.692;23.312;2024-02-23T03:48:01;20.08;;;9.98;;
11123;SDS011;5616;42.692;23.312;2024-02-23T03:50:29;23.67;;;10.73;;
11123;SDS011;5616;42.692;23.312;2024-02-23T03:52:54;17.70;;;8.85;;
11123;SDS011;5616;42.692;23.312;2024-02-23T03:55:20;15.50;;;9.27;;
11123;SDS011;5616;42.692;23.312;2024-02-23T03:57:47;20.48;;;10.38;;
11123;SDS011;5616;42.692;23.312;2024-02-23T04:00:12;18.63;;;8.40;;
11123;SDS011;5616;42.692;23.312;2024-02-23T04:02:38;18.92;;;9.73;;
11123;SDS011;5616;42.692;23.312;2024-02-23T04:05:04;20.05;;;10.35;;
11123;SDS011;5616;42.692;23.312;2024-02-23T04:07:30;22.02;;;10.77;;
11123;SDS011;5616;42.692;23.312;2024-02-23T04:09:56;18.50;;;9.25;;
11123;SDS011;5616;42.692;23.312;2024-02-23T04:12:21;20.00;;;10.02;;
11123;SDS011;5616;42.692;23.312;2024-02-23T04:14:47;15.93;;;8.77;;
11123;SDS011;5616;42.692;23.312;2024-02-23T04:17:13;17.92;;;10.95;;
11123;SDS011;5616;42.692;23.312;2024-02-23T04:19:40;18.42;;;9.25;;
11123;SDS011;5616;42.692;23.312;2024-02-23T04:22:06;18.48;;;9.60;;
11123;SDS011;5616;42.692;23.312;2024-02-23T04:24:36;16.90;;;10.25;;
11123;SDS011;5616;42.692;23.312;2024-02-23T04:27:06;20.63;;;9.40;;
11123;SDS011;5616;42.692;23.312;2024-02-23T04:29:33;20.23;;;9.65;;
11123;SDS011;5616;42.692;23.312;2024-02-23T04:31:59;21.38;;;10.43;;
11123;SDS011;5616;42.692;23.312;2024-02-23T04:34:26;19.48;;;9.00;;
11123;SDS011;5616;42.692;23.312;2024-02-23T04:36:52;21.05;;;9.18;;
11123;SDS011;5616;42.692;23.312;2024-02-23T04:39:17;19.52;;;9.80;;
11123;SDS011;5616;42.692;23.312;2024-02-23T04:41:43;18.45;;;10.02;;
11123;SDS011;5616;42.692;23.312;2024-02-23T04:44:08;16.40;;;8.93;;
11123;SDS011;5616;42.692;23.312;2024-02-23T04:46:34;21.13;;;10.60;;
11123;SDS011;5616;42.692;23.312;2024-02-23T04:49:00;18.88;;;10.57;;
11123;SDS011;5616;42.692;23.312;2024-02-23T04:51:26;20.05;;;11.05;;
11123;SDS011;5616;42.692;23.312;2024-02-23T04:53:51;16.45;;;8.88;;
11123;SDS011;5616;42.692;23.312;2024-02-23T04:56:16;18.17;;;10.48;;
11123;SDS011;5616;42.692;23.312;2024-02-23T04:58:45;17.52;;;10.45;;
11123;SDS011;5616;42.692;23.312;2024-02-23T05:01:12;19.17;;;9.82;;
11123;SDS011;5616;42.692;23.312;2024-02-23T05:03:37;24.58;;;10.85;;
11123;SDS011;5616;42.692;23.312;2024-02-23T05:06:03;22.17;;;11.32;;
11123;SDS011;5616;42.692;23.312;2024-02-23T05:08:29;18.05;;;9.80;;
11123;SDS011;5616;42.692;23.312;2024-02-23T05:10:55;22.02;;;12.00;;
11123;SDS011;5616;42.692;23.312;2024-02-23T05:13:24;22.83;;;9.98;;
11123;SDS011;5616;42.692;23.312;2024-02-23T05:15:49;19.58;;;9.18;;
11123;SDS011;5616;42.692;23.312;2024-02-23T05:18:15;24.30;;;11.15;;
11123;SDS011;5616;42.692;23.312;2024-02-23T05:20:40;21.73;;;11.75;;
11123;SDS011;5616;42.692;23.312;2024-02-23T05:23:06;21.13;;;10.38;;
11123;SDS011;5616;42.692;23.312;2024-02-23T05:25:31;27.20;;;11.68;;
11123;SDS011;5616;42.692;23.312;2024-02-23T05:27:57;20.63;;;10.40;;
11123;SDS011;5616;42.692;23.312;2024-02-23T05:30:22;19.38;;;9.80;;
11123;SDS011;5616;42.692;23.312;2024-02-23T05:32:48;26.05;;;11.70;;
11123;SDS011;5616;42.692;23.312;2024-02-23T05:35:13;20.98;;;10.23;;
11123;SDS011;5616;42.692;23.312;2024-02-23T05:37:40;20.85;;;9.85;;
11123;SDS011;5616;42.692;23.312;2024-02-23T05:40:06;25.42;;;10.93;;
11123;SDS011;5616;42.692;23.312;2024-02-23T05:42:35;22.88;;;11.10;;
11123;SDS011;5616;42.692;23.312;2024-02-23T05:45:02;23.48;;;12.23;;
11123;SDS011;5616;42.692;23.312;2024-02-23T05:47:32;21.27;;;10.07;;
11123;SDS011;5616;42.692;23.312;2024-02-23T05:49:58;23.33;;;11.88;;
11123;SDS011;5616;42.692;23.312;2024-02-23T05:52:23;23.05;;;10.50;;
11123;SDS011;5616;42.692;23.312;2024-02-23T05:54:49;19.13;;;11.82;;
11123;SDS011;5616;42.692;23.312;2024-02-23T05:57:14;25.02;;;12.25;;
11123;SDS011;5616;42.692;23.312;2024-02-23T05:59:39;22.80;;;11.55;;
11123;SDS011;5616;42.692;23.312;2024-02-23T06:02:05;20.15;;;10.50;;
11123;SDS011;5616;42.692;23.312;2024-02-23T06:04:31;21.55;;;10.90;;
11123;SDS011;5616;42.692;23.312;2024-02-23T06:06:56;25.13;;;11.45;;
11123;SDS011;5616;42.692;23.312;2024-02-23T06:09:22;23.85;;;11.02;;
11123;SDS011;5616;42.692;23.312;2024-02-23T06:11:47;23.90;;;10.68;;
11123;SDS011;5616;42.692;23.312;2024-02-23T06:14:13;21.58;;;10.77;;
11123;SDS011;5616;42.692;23.312;2024-02-23T06:16:39;21.55;;;11.05;;
11123;SDS011;5616;42.692;23.312;2024-02-23T06:19:05;21.30;;;12.05;;
11123;SDS011;5616;42.692;23.312;2024-02-23T06:21:31;28.35;;;13.25;;
11123;SDS011;5616;42.692;23.312;2024-02-23T06:23:57;25.23;;;12.35;;
11123;SDS011;5616;42.692;23.312;2024-02-23T06:26:23;22.17;;;12.32;;
11123;SDS011;5616;42.692;23.312;2024-02-23T06:28:48;23.83;;;11.68;;
11123;SDS011;5616;42.692;23.312;2024-02-23T06:31:14;24.85;;;11.23;;
11123;SDS011;5616;42.692;23.312;2024-02-23T06:33:39;25.45;;;12.85;;
11123;SDS011;5616;42.692;23.312;2024-02-23T06:36:06;22.40;;;12.20;;
11123;SDS011;5616;42.692;23.312;2024-02-23T06:38:32;26.35;;;13.82;;
11123;SDS011;5616;42.692;23.312;2024-02-23T06:40:58;24.45;;;12.40;;
11123;SDS011;5616;42.692;23.312;2024-02-23T06:43:24;29.08;;;11.43;;
11123;SDS011;5616;42.692;23.312;2024-02-23T06:45:49;25.13;;;12.13;;
11123;SDS011;5616;42.692;23.312;2024-02-23T06:48:16;28.42;;;13.07;;
11123;SDS011;5616;42.692;23.312;2024-02-23T06:50:41;22.17;;;11.57;;
11123;SDS011;5616;42.692;23.312;2024-02-23T06:53:07;21.20;;;12.18;;
11123;SDS011;5616;42.692;23.312;2024-02-23T06:55:33;24.65;;;11.85;;
11123;SDS011;5616;42.692;23.312;2024-02-23T06:57:59;26.13;;;12.02;;
11123;SDS011;5616;42.692;23.312;2024-02-23T07:00:25;22.10;;;12.10;;
11123;SDS011;5616;42.692;23.312;2024-02-23T07:02:50;26.30;;;12.77;;
11123;SDS011;5616;42.692;23.312;2024-02-23T07:05:16;29.10;;;13.45;;
11123;SDS011;5616;42.692;23.312;2024-02-23T07:07:42;23.75;;;12.88;;
11123;SDS011;5616;42.692;23.312;2024-02-23T07:10:07;27.60;;;12.65;;
11123;SDS011;5616;42.692;23.312;2024-02-23T07:12:33;22.52;;;11.85;;
11123;SDS011;5616;42.692;23.312;2024-02-23T07:14:59;22.65;;;12.95;;
11123;SDS011;5616;42.692;23.312;2024-02-23T07:17:25;23.88;;;12.68;;
11123;SDS011;5616;42.692;23.312;2024-02-23T07:19:50;22.17;;;11.40;;
11123;SDS011;5616;42.692;23.312;2024-02-23T07:22:16;25.52;;;13.18;;
11123;SDS011;5616;42.692;23.312;2024-02-23T07:24:45;27.65;;;13.30;;
11123;SDS011;5616;42.692;23.312;2024-02-23T07:27:11;27.50;;;13.45;;
11123;SDS011;5616;42.692;23.312;2024-02-23T07:29:36;30.25;;;11.88;;
11123;SDS011;5616;42.692;23.312;2024-02-23T07:32:02;24.73;;;13.70;;
11123;SDS011;5616;42.692;23.312;2024-02-23T07:34:29;28.45;;;14.80;;
11123;SDS011;5616;42.692;23.312;2024-02-23T07:36:54;32.67;;;14.55;;
11123;SDS011;5616;42.692;23.312;2024-02-23T07:39:20;33.42;;;14.73;;
11123;SDS011;5616;42.692;23.312;2024-02-23T07:41:47;26.52;;;14.35;;
11123;SDS011;5616;42.692;23.312;2024-02-23T07:44:12;30.65;;;14.95;;
11123;SDS011;5616;42.692;23.312;2024-02-23T07:46:38;29.35;;;15.73;;
11123;SDS011;5616;42.692;23.312;2024-02-23T07:49:06;33.65;;;15.02;;
11123;SDS011;5616;42.692;23.312;2024-02-23T07:51:31;49.30;;;19.45;;
11123;SDS011;5616;42.692;23.312;2024-02-23T07:53:57;54.00;;;20.65;;
11123;SDS011;5616;42.692;23.312;2024-02-23T07:56:23;42.17;;;18.02;;
11123;SDS011;5616;42.692;23.312;2024-02-23T07:58:48;38.38;;;18.48;;
11123;SDS011;5616;42.692;23.312;2024-02-23T08:01:14;40.05;;;18.10;;
11123;SDS011;5616;42.692;23.312;2024-02-23T08:03:40;42.28;;;18.40;;
11123;SDS011;5616;42.692;23.312;2024-02-23T08:06:06;38.75;;;18.17;;
11123;SDS011;5616;42.692;23.312;2024-02-23T08:08:31;37.88;;;16.73;;
11123;SDS011;5616;42.692;23.312;2024-02-23T08:11:02;35.22;;;16.45;;
11123;SDS011;5616;42.692;23.312;2024-02-23T08:13:28;42.15;;;15.75;;
11123;SDS011;5616;42.692;23.312;2024-02-23T08:15:54;30.73;;;14.63;;
11123;SDS011;5616;42.692;23.312;2024-02-23T08:18:20;34.38;;;15.07;;
11123;SDS011;5616;42.692;23.312;2024-02-23T08:20:47;34.40;;;15.43;;
11123;SDS011;5616;42.692;23.312;2024-02-23T08:23:13;31.20;;;15.15;;
11123;SDS011;5616;42.692;23.312;2024-02-23T08:25:38;30.80;;;15.90;;
11123;SDS011;5616;42.692;23.312;2024-02-23T08:28:04;32.53;;;15.88;;
11123;SDS011;5616;42.692;23.312;2024-02-23T08:30:30;31.10;;;14.18;;
11123;SDS011;5616;42.692;23.312;2024-02-23T08:32:55;32.25;;;13.48;;
11123;SDS011;5616;42.692;23.312;2024-02-23T08:35:21;33.78;;;15.57;;
11123;SDS011;5616;42.692;23.312;2024-02-23T08:37:46;29.45;;;13.75;;
11123;SDS011;5616;42.692;23.312;2024-02-23T08:40:11;33.30;;;14.18;;
11123;SDS011;5616;42.692;23.312;2024-02-23T08:42:37;26.15;;;12.95;;
11123;SDS011;5616;42.692;23.312;2024-02-23T08:45:03;33.72;;;14.90;;
11123;SDS011;5616;42.692;23.312;2024-02-23T08:47:29;28.40;;;13.82;;
11123;SDS011;5616;42.692;23.312;2024-02-23T08:49:58;32.55;;;14.95;;
11123;SDS011;5616;42.692;23.312;2024-02-23T08:52:24;33.22;;;13.98;;
11123;SDS011;5616;42.692;23.312;2024-02-23T08:54:50;29.13;;;13.57;;
11123;SDS011;5616;42.692;23.312;2024-02-23T08:57:16;26.38;;;13.30;;
11123;SDS011;5616;42.692;23.312;2024-02-23T08:59:44;28.33;;;14.50;;
11123;SDS011;5616;42.692;23.312;2024-02-23T09:02:10;30.33;;;13.57;;
11123;SDS011;5616;42.692;23.312;2024-02-23T09:04:36;29.70;;;14.98;;
11123;SDS011;5616;42.692;23.312;2024-02-23T09:07:01;30.52;;;15.48;;
11123;SDS011;5616;42.692;23.312;2024-02-23T09:09:27;31.42;;;15.10;;
11123;SDS011;5616;42.692;23.312;2024-02-23T09:11:53;34.35;;;16.60;;
11123;SDS011;5616;42.692;23.312;2024-02-23T09:14:18;35.10;;;15.13;;
11123;SDS011;5616;42.692;23.312;2024-02-23T09:16:44;28.50;;;13.95;;
11123;SDS011;5616;42.692;23.312;2024-02-23T09:19:11;27.02;;;14.27;;
11123;SDS011;5616;42.692;23.312;2024-02-23T09:21:37;35.83;;;14.57;;
11123;SDS011;5616;42.692;23.312;2024-02-23T09:24:03;32.05;;;14.50;;
11123;SDS011;5616;42.692;23.312;2024-02-23T09:26:29;32.20;;;13.48;;
11123;SDS011;5616;42.692;23.312;2024-02-23T09:28:54;34.15;;;14.00;;
11123;SDS011;5616;42.692;23.312;2024-02-23T09:31:20;81.10;;;27.05;;
11123;SDS011;5616;42.692;23.312;2024-02-23T09:33:45;33.72;;;15.02;;
11123;SDS011;5616;42.692;23.312;2024-02-23T09:38:37;18.25;;;9.05;;
11123;SDS011;5616;42.692;23.312;2024-02-23T09:41:03;32.20;;;11.88;;
11123;SDS011;5616;42.692;23.312;2024-02-23T09:43:29;11.77;;;6.00;;
11123;SDS011;5616;42.692;23.312;2024-02-23T09:45:57;9.50;;;5.88;;
11123;SDS011;5616;42.692;23.312;2024-02-23T09:50:50;12.43;;;5.93;;
11123;SDS011;5616;42.692;23.312;2024-02-23T09:53:17;10.80;;;5.97;;
11123;SDS011;5616;42.692;23.312;2024-02-23T09:55:45;8.43;;;5.57;;
11123;SDS011;5616;42.692;23.312;2024-02-23T09:58:13;9.32;;;5.82;;
11123;SDS011;5616;42.692;23.312;2024-02-23T10:00:42;7.97;;;6.00;;
11123;SDS011;5616;42.692;23.312;2024-02-23T10:03:09;23.33;;;8.80;;
11123;SDS011;5616;42.692;23.312;2024-02-23T10:05:34;18.60;;;7.15;;
11123;SDS011;5616;42.692;23.312;2024-02-23T10:08:00;9.88;;;5.65;;
11123;SDS011;5616;42.692;23.312;2024-02-23T10:10:35;6.07;;;4.57;;
11123;SDS011;5616;42.692;23.312;2024-02-23T10:13:01;6.72;;;5.03;;
11123;SDS011;5616;42.692;23.312;2024-02-23T10:15:29;37.88;;;13.00;;
11123;SDS011;5616;42.692;23.312;2024-02-23T10:17:55;17.15;;;6.72;;
11123;SDS011;5616;42.692;23.312;2024-02-23T10:20:21;10.18;;;5.72;;
11123;SDS011;5616;42.692;23.312;2024-02-23T10:22:47;9.20;;;4.72;;
11123;SDS011;5616;42.692;23.312;2024-02-23T10:25:12;8.68;;;4.13;;
11123;SDS011;5616;42.692;23.312;2024-02-23T10:27:40;5.25;;;4.72;;
11123;SDS011;5616;42.692;23.312;2024-02-23T10:30:07;7.82;;;3.97;;
11123;SDS011;5616;42.692;23.312;2024-02-23T10:32:35;8.35;;;5.00;;
11123;SDS011;5616;42.692;23.312;2024-02-23T10:35:03;7.25;;;4.32;;
11123;SDS011;5616;42.692;23.312;2024-02-23T10:37:34;5.18;;;3.90;;
11123;SDS011;5616;42.692;23.312;2024-02-23T10:39:59;6.65;;;4.18;;
11123;SDS011;5616;42.692;23.312;2024-02-23T10:42:27;3.45;;;3.15;;
11123;SDS011;5616;42.692;23.312;2024-02-23T10:44:56;4.78;;;3.53;;
11123;SDS011;5616;42.692;23.312;2024-02-23T10:47:26;3.95;;;3.20;;
11123;SDS011;5616;42.692;23.312;2024-02-23T10:49:53;6.90;;;3.65;;
11123;SDS011;5616;42.692;23.312;2024-02-23T10:52:19;3.88;;;3.17;;
11123;SDS011;5616;42.692;23.312;2024-02-23T10:54:48;4.13;;;3.58;;
11123;SDS011;5616;42.692;23.312;2024-02-23T10:57:17;3.40;;;2.65;;
11123;SDS011;5616;42.692;23.312;2024-02-23T10:59:46;3.33;;;3.05;;
11123;SDS011;5616;42.692;23.312;2024-02-23T11:02:13;7.20;;;4.43;;
11123;SDS011;5616;42.692;23.312;2024-02-23T11:04:46;3.88;;;3.58;;
11123;SDS011;5616;42.692;23.312;2024-02-23T11:07:15;4.28;;;3.90;;
11123;SDS011;5616;42.692;23.312;2024-02-23T11:09:47;4.57;;;3.13;;
11123;SDS011;5616;42.692;23.312;2024-02-23T11:12:21;5.20;;;3.15;;
11123;SDS011;5616;42.692;23.312;2024-02-23T11:14:49;6.15;;;3.00;;
11123;SDS011;5616;42.692;23.312;2024-02-23T11:17:18;6.38;;;3.63;;
11123;SDS011;5616;42.692;23.312;2024-02-23T11:19:50;3.85;;;3.45;;
11123;SDS011;5616;42.692;23.312;2024-02-23T11:22:23;4.38;;;3.65;;
11123;SDS011;5616;42.692;23.312;2024-02-23T11:25:07;5.00;;;3.42;;
11123;SDS011;5616;42.692;23.312;2024-02-23T11:27:36;6.10;;;4.13;;
11123;SDS011;5616;42.692;23.312;2024-02-23T11:30:07;5.28;;;3.53;;
11123;SDS011;5616;42.692;23.312;2024-02-23T11:32:47;6.38;;;3.95;;
11123;SDS011;5616;42.692;23.312;2024-02-23T11:35:14;4.07;;;3.40;;
11123;SDS011;5616;42.692;23.312;2024-02-23T11:37:58;6.18;;;3.42;;
11123;SDS011;5616;42.692;23.312;2024-02-23T11:40:25;4.20;;;3.72;;
11123;SDS011;5616;42.692;23.312;2024-02-23T11:42:51;3.75;;;3.03;;
11123;SDS011;5616;42.692;23.312;2024-02-23T11:45:17;3.80;;;3.30;;
11123;SDS011;5616;42.692;23.312;2024-02-23T11:47:43;6.75;;;3.85;;
11123;SDS011;5616;42.692;23.312;2024-02-23T11:50:09;5.05;;;4.15;;
11123;SDS011;5616;42.692;23.312;2024-02-23T11:52:38;5.50;;;3.40;;
11123;SDS011;5616;42.692;23.312;2024-02-23T11:55:04;4.00;;;3.42;;
11123;SDS011;5616;42.692;23.312;2024-02-23T11:57:36;3.92;;;3.47;;
11123;SDS011;5616;42.692;23.312;2024-02-23T12:00:04;9.07;;;3.50;;
11123;SDS011;5616;42.692;23.312;2024-02-23T12:02:32;5.97;;;3.63;;
11123;SDS011;5616;42.692;23.312;2024-02-23T12:05:00;5.20;;;3.63;;
11123;SDS011;5616;42.692;23.312;2024-02-23T12:09:54;3.20;;;2.90;;
11123;SDS011;5616;42.692;23.312;2024-02-23T12:12:20;5.13;;;3.40;;
11123;SDS011;5616;42.692;23.312;2024-02-23T12:14:46;4.78;;;3.45;;
11123;SDS011;5616;42.692;23.312;2024-02-23T12:17:13;4.28;;;3.85;;
11123;SDS011;5616;42.692;23.312;2024-02-23T12:19:39;5.20;;;3.90;;
11123;SDS011;5616;42.692;23.312;2024-02-23T12:22:05;6.78;;;4.28;;
11123;SDS011;5616;42.692;23.312;2024-02-23T12:24:31;4.82;;;3.60;;
11123;SDS011;5616;42.692;23.312;2024-02-23T12:26:56;4.05;;;3.42;;
11123;SDS011;5616;42.692;23.312;2024-02-23T12:29:22;3.97;;;3.10;;
11123;SDS011;5616;42.692;23.312;2024-02-23T12:31:48;3.30;;;3.00;;
11123;SDS011;5616;42.692;23.312;2024-02-23T12:34:13;4.72;;;3.97;;
11123;SDS011;5616;42.692;23.312;2024-02-23T12:36:39;5.53;;;3.67;;
11123;SDS011;5616;42.692;23.312;2024-02-23T12:39:05;7.10;;;3.60;;
11123;SDS011;5616;42.692;23.312;2024-02-23T12:41:30;3.28;;;3.08;;
11123;SDS011;5616;42.692;23.312;2024-02-23T12:43:56;3.30;;;3.00;;
11123;SDS011;5616;42.692;23.312;2024-02-23T12:46:21;4.32;;;3.88;;
11123;SDS011;5616;42.692;23.312;2024-02-23T12:48:48;13.75;;;5.95;;
11123;SDS011;5616;42.692;23.312;2024-02-23T12:51:15;10.23;;;4.47;;
11123;SDS011;5616;42.692;23.312;2024-02-23T12:53:41;3.42;;;3.13;;
11123;SDS011;5616;42.692;23.312;2024-02-23T12:56:09;5.30;;;3.50;;
11123;SDS011;5616;42.692;23.312;2024-02-23T12:58:36;3.03;;;2.72;;
11123;SDS011;5616;42.692;23.312;2024-02-23T13:01:02;3.35;;;2.75;;
11123;SDS011;5616;42.692;23.312;2024-02-23T13:03:28;3.95;;;3.33;;
11123;SDS011;5616;42.692;23.312;2024-02-23T13:05:54;6.60;;;3.88;;
11123;SDS011;5616;42.692;23.312;2024-02-23T13:08:21;4.03;;;3.63;;
11123;SDS011;5616;42.692;23.312;2024-02-23T13:10:47;4.43;;;3.30;;
11123;SDS011;5616;42.692;23.312;2024-02-23T13:13:13;3.15;;;2.67;;
11123;SDS011;5616;42.692;23.312;2024-02-23T13:15:43;3.75;;;2.97;;
11123;SDS011;5616;42.692;23.312;2024-02-23T13:18:09;6.03;;;3.30;;
11123;SDS011;5616;42.692;23.312;2024-02-23T13:20:35;4.57;;;2.92;;
11123;SDS011;5616;42.692;23.312;2024-02-23T13:23:01;3.33;;;3.10;;
11123;SDS011;5616;42.692;23.312;2024-02-23T13:25:27;4.20;;;2.92;;
11123;SDS011;5616;42.692;23.312;2024-02-23T13:27:53;3.33;;;3.03;;
11123;SDS011;5616;42.692;23.312;2024-02-23T13:30:18;4.07;;;3.17;;
11123;SDS011;5616;42.692;23.312;2024-02-23T13:32:44;3.72;;;3.38;;
11123;SDS011;5616;42.692;23.312;2024-02-23T13:35:10;3.42;;;3.10;;
11123;SDS011;5616;42.692;23.312;2024-02-23T13:37:35;4.47;;;3.60;;
11123;SDS011;5616;42.692;23.312;2024-02-23T13:40:01;4.72;;;3.45;;
11123;SDS011;5616;42.692;23.312;2024-02-23T13:42:26;12.15;;;5.40;;
11123;SDS011;5616;42.692;23.312;2024-02-23T13:44:52;3.55;;;3.05;;
11123;SDS011;5616;42.692;23.312;2024-02-23T13:47:17;4.78;;;3.65;;
11123;SDS011;5616;42.692;23.312;2024-02-23T13:49:43;9.45;;;5.20;;
11123;SDS011;5616;42.692;23.312;2024-02-23T13:52:08;8.68;;;4.13;;
11123;SDS011;5616;42.692;23.312;2024-02-23T13:54:34;7.35;;;3.40;;
11123;SDS011;5616;42.692;23.312;2024-02-23T13:56:59;5.28;;;3.38;;
11123;SDS011;5616;42.692;23.312;2024-02-23T13:59:25;3.63;;;3.30;;
11123;SDS011;5616;42.692;23.312;2024-02-23T14:01:50;7.30;;;3.40;;
11123;SDS011;5616;42.692;23.312;2024-02-23T14:04:16;5.07;;;3.35;;
11123;SDS011;5616;42.692;23.312;2024-02-23T14:06:42;8.02;;;3.35;;
11123;SDS011;5616;42.692;23.312;2024-02-23T14:09:08;6.35;;;3.33;;
11123;SDS011;5616;42.692;23.312;2024-02-23T14:14:00;8.45;;;3.13;;
11123;SDS011;5616;42.692;23.312;2024-02-23T14:16:25;5.05;;;3.40;;
11123;SDS011;5616;42.692;23.312;2024-02-23T14:18:51;5.50;;;3.88;;
11123;SDS011;5616;42.692;23.312;2024-02-23T14:21:16;4.03;;;3.17;;
11123;SDS011;5616;42.692;23.312;2024-02-23T14:23:43;4.88;;;3.60;;
11123;SDS011;5616;42.692;23.312;2024-02-23T14:26:09;4.38;;;3.83;;
11123;SDS011;5616;42.692;23.312;2024-02-23T14:28:35;3.50;;;3.03;;
11123;SDS011;5616;42.692;23.312;2024-02-23T14:31:00;4.57;;;3.78;;
11123;SDS011;5616;42.692;23.312;2024-02-23T14:33:26;4.85;;;3.63;;
11123;SDS011;5616;42.692;23.312;2024-02-23T14:35:51;3.92;;;3.28;;
11123;SDS011;5616;42.692;23.312;2024-02-23T14:38:17;5.13;;;3.53;;